Canterbury, Connecticut
Current Conditions -  °F | °C
As of 5:52 PM on Monday 22 Dec 2014 (Local Time) from KIJD Reporting Station
Overcast Overcast  
Wind Chill: 36°   Ceiling: 1400
Heat Index: 41°   Visibility: 10mi
Dew Point: 36°   Wind: 7mph
Humidity: 82%   Direction: 50°NE
Pressure: 30.29"   Gusts: NA
Location:  41.7°N, 71.97°W
Report Text: KIJD 222252Z AUTO 05006KT 10SM OVC014 05/02 A3029 RMK AO2 SLP260 T00500022
Loading
Personal Weather Stations






























Interactive Weather Map New forecast layout! Learn more

10-Day Weather Forecast

Advertisements
Track Severe Weather on mobile